createdAt,value
2022-11-24T00:01:24.591Z,97259.84
2022-11-24T00:03:57.368Z,97257.60
2022-11-24T00:06:24.441Z,97257.10
2022-11-24T00:08:51.377Z,97262.65
2022-11-24T00:11:20.688Z,97264.56
2022-11-24T00:13:48.043Z,97266.60
2022-11-24T00:16:23.575Z,97268.48
2022-11-24T00:18:53.013Z,97271.21
2022-11-24T00:21:20.571Z,97267.88
2022-11-24T00:23:48.234Z,97270.36
2022-11-24T00:26:17.445Z,97272.27
2022-11-24T00:28:45.584Z,97269.77
2022-11-24T00:31:19.508Z,97272.83
2022-11-24T00:33:47.922Z,97271.15
2022-11-24T00:36:15.491Z,97267.89
2022-11-24T00:38:42.634Z,97270.38
2022-11-24T00:41:09.484Z,97271.80
2022-11-24T00:43:36.122Z,97271.15
2022-11-24T00:46:02.832Z,97271.65
2022-11-24T00:48:30.741Z,97271.04
2022-11-24T00:51:09.777Z,97273.18
2022-11-24T00:53:36.813Z,97271.52
2022-11-24T00:56:04.080Z,97268.59
2022-11-24T00:58:31.130Z,97274.91
2022-11-24T01:01:06.656Z,97274.20
2022-11-24T01:03:34.245Z,97276.08
2022-11-24T01:06:06.365Z,97274.71
2022-11-24T01:08:33.670Z,97276.69
2022-11-24T01:11:15.271Z,97277.11
2022-11-24T01:13:42.724Z,97279.27
2022-11-24T01:16:20.138Z,97278.52
2022-11-24T01:18:47.380Z,97284.33
2022-11-24T01:21:14.940Z,97285.09
2022-11-24T01:23:41.587Z,97286.73
2022-11-24T01:26:10.772Z,97290.15
2022-11-24T01:28:40.552Z,97288.23
2022-11-24T01:31:09.966Z,97291.70
2022-11-24T01:33:37.380Z,97293.15
2022-11-24T01:36:05.456Z,97292.95
2022-11-24T01:38:32.306Z,97291.84
2022-11-24T01:41:06.930Z,97295.69
2022-11-24T01:43:33.987Z,97297.90
2022-11-24T01:46:15.850Z,97301.88
2022-11-24T01:49:04.951Z,97305.79
2022-11-24T01:51:35.836Z,97308.18
2022-11-24T01:54:10.426Z,97315.06
2022-11-24T01:56:40.814Z,97313.42
2022-11-24T01:59:11.731Z,97317.10
2022-11-24T02:01:38.443Z,97318.60
2022-11-24T02:04:11.125Z,97318.91
2022-11-24T02:06:40.018Z,97318.83
2022-11-24T02:09:24.171Z,97318.24
2022-11-24T02:11:53.867Z,97325.28
2022-11-24T02:14:22.480Z,97326.98
2022-11-24T02:16:50.552Z,97327.31
2022-11-24T02:19:31.530Z,97325.50
2022-11-24T02:21:58.175Z,97327.77
2022-11-24T02:24:33.499Z,97329.03
2022-11-24T02:27:00.266Z,97329.08
2022-11-24T02:29:26.912Z,97333.25
2022-11-24T02:32:00.614Z,97334.29
2022-11-24T02:34:27.254Z,97333.77
2022-11-24T02:36:53.796Z,97329.16
2022-11-24T02:39:20.440Z,97327.30
2022-11-24T02:41:51.898Z,97329.84
2022-11-24T02:44:20.173Z,97334.77
2022-11-24T02:46:46.820Z,97333.95
2022-11-24T02:49:13.353Z,97337.04
2022-11-24T02:51:39.893Z,97339.05
2022-11-24T02:54:06.537Z,97339.79
2022-11-24T02:56:33.179Z,97337.42
2022-11-24T02:58:59.920Z,97343.60
2022-11-24T03:01:26.528Z,97345.34
2022-11-24T03:03:53.103Z,97347.23
2022-11-24T03:06:19.642Z,97350.48
2022-11-24T03:08:46.284Z,97353.28
2022-11-24T03:11:12.821Z,97353.35
2022-11-24T03:13:39.363Z,97353.77
2022-11-24T03:16:08.835Z,97350.90
2022-11-24T03:18:35.518Z,97353.86
2022-11-24T03:21:02.158Z,97351.54
2022-11-24T03:23:28.803Z,97358.80
2022-11-24T03:25:55.345Z,97357.28
2022-11-24T03:28:21.887Z,97359.98
2022-11-24T03:30:50.240Z,97360.39
2022-11-24T03:33:16.912Z,97361.11
2022-11-24T03:35:43.553Z,97358.17
2022-11-24T03:38:10.199Z,97364.40
2022-11-24T03:40:36.735Z,97363.82
2022-11-24T03:43:03.275Z,97364.71
2022-11-24T03:45:45.449Z,97366.33
2022-11-24T03:48:14.076Z,97365.21
2022-11-24T03:50:40.620Z,97363.66
2022-11-24T03:53:07.359Z,97367.20
2022-11-24T03:55:34.001Z,97368.22
2022-11-24T03:58:00.640Z,97373.08
2022-11-24T04:01:11.318Z,97370.73
2022-11-24T04:03:39.501Z,97378.48
2022-11-24T04:06:06.143Z,97383.60
2022-11-24T04:08:32.689Z,97383.33
2022-11-24T04:10:59.334Z,97383.88
2022-11-24T04:13:27.482Z,97384.59
2022-11-24T04:15:54.260Z,97386.80
2022-11-24T04:18:21.303Z,97388.35
2022-11-24T04:20:52.144Z,97388.82
2022-11-24T04:23:19.300Z,97393.27
2022-11-24T04:25:45.846Z,97394.32
2022-11-24T04:28:12.373Z,97397.20
2022-11-24T04:30:39.228Z,97398.38
2022-11-24T04:33:05.767Z,97404.02
2022-11-24T04:35:32.307Z,97407.77
2022-11-24T04:38:02.622Z,97408.65
2022-11-24T04:40:29.178Z,97408.44
2022-11-24T04:42:56.533Z,97415.06
2022-11-24T04:45:24.115Z,97412.14
2022-11-24T04:47:51.050Z,97416.21
2022-11-24T04:50:18.484Z,97421.34
2022-11-24T04:52:45.354Z,97425.41
2022-11-24T04:55:11.996Z,97422.51
2022-11-24T04:57:38.950Z,97424.19
2022-11-24T05:00:06.638Z,97427.37
2022-11-24T05:02:33.267Z,97426.34
2022-11-24T05:04:59.906Z,97430.27
2022-11-24T05:07:26.437Z,97432.61
2022-11-24T05:09:59.368Z,97428.45
2022-11-24T05:12:27.911Z,97425.88
2022-11-24T05:14:54.450Z,97426.05
2022-11-24T05:17:21.093Z,97430.84
2022-11-24T05:19:47.632Z,97428.77
2022-11-24T05:22:14.177Z,97428.55
2022-11-24T05:24:40.616Z,97431.71
2022-11-24T05:27:07.189Z,97433.54
2022-11-24T05:29:33.687Z,97433.85
2022-11-24T05:32:00.224Z,97439.98
2022-11-24T05:34:26.662Z,97439.65
2022-11-24T05:36:53.210Z,97441.71
2022-11-24T05:39:20.768Z,97441.20
2022-11-24T05:41:47.536Z,97446.77
2022-11-24T05:44:14.108Z,97448.40
2022-11-24T05:46:40.649Z,97447.33
2022-11-24T05:49:07.242Z,97451.23
2022-11-24T05:51:34.644Z,97451.56
2022-11-24T05:54:01.142Z,97453.08
2022-11-24T05:56:27.576Z,97462.29
2022-11-24T05:58:54.014Z,97460.92
2022-11-24T06:01:20.555Z,97466.96
2022-11-24T06:03:47.095Z,97470.93
2022-11-24T06:06:13.678Z,97472.98
2022-11-24T06:08:40.380Z,97472.09
2022-11-24T06:11:06.893Z,97473.33
2022-11-24T06:13:33.369Z,97472.49
2022-11-24T06:15:59.986Z,97484.44
2022-11-24T06:18:26.538Z,97482.54
2022-11-24T06:21:09.698Z,97483.84
2022-11-24T06:23:37.130Z,97484.80
2022-11-24T06:26:03.673Z,97483.77
2022-11-24T06:28:30.236Z,97486.91
2022-11-24T06:31:00.848Z,97486.17
2022-11-24T06:33:29.864Z,97489.34
2022-11-24T06:36:00.716Z,97491.49
2022-11-24T06:38:27.229Z,97495.30
2022-11-24T06:41:05.797Z,97502.04
2022-11-24T06:43:33.730Z,97500.71
2022-11-24T06:46:00.378Z,97504.73
2022-11-24T06:48:27.139Z,97510.63
2022-11-24T06:50:54.365Z,97513.92
2022-11-24T06:53:20.799Z,97517.58
2022-11-24T06:55:47.657Z,97518.50
2022-11-24T06:58:14.064Z,97517.66
2022-11-24T07:00:40.703Z,97517.16
2022-11-24T07:03:07.325Z,97515.42
2022-11-24T07:05:33.916Z,97513.20
2022-11-24T07:08:00.460Z,97516.50
2022-11-24T07:10:26.999Z,97520.34
2022-11-24T07:12:53.443Z,97523.39
2022-11-24T07:15:19.829Z,97524.06
2022-11-24T07:17:46.310Z,97526.11
2022-11-24T07:20:12.747Z,97531.05
2022-11-24T07:22:39.122Z,97535.77
2022-11-24T07:25:06.322Z,97532.58
2022-11-24T07:27:33.283Z,97536.84
2022-11-24T07:29:59.832Z,97542.61
2022-11-24T07:32:26.291Z,97543.54
2022-11-24T07:34:52.744Z,97538.74
2022-11-24T07:37:19.131Z,97541.95
2022-11-24T07:39:45.547Z,97536.30
2022-11-24T07:42:11.952Z,97532.72
2022-11-24T07:44:38.459Z,97535.19
2022-11-24T07:47:04.999Z,97534.91
2022-11-24T07:49:31.539Z,97534.00
2022-11-24T07:51:58.082Z,97538.83
2022-11-24T07:54:24.520Z,97541.45
2022-11-24T07:56:50.920Z,97543.71
2022-11-24T07:59:17.394Z,97545.16
2022-11-24T08:01:43.945Z,97544.27
2022-11-24T08:04:10.556Z,97547.98
2022-11-24T08:06:40.973Z,97551.95
2022-11-24T08:09:11.057Z,97548.75
2022-11-24T08:11:37.436Z,97554.04
2022-11-24T08:14:03.904Z,97557.34
2022-11-24T08:16:30.515Z,97557.73
2022-11-24T08:18:57.162Z,97559.86
2022-11-24T08:21:24.226Z,97561.39
2022-11-24T08:23:55.068Z,97562.84
2022-11-24T08:26:21.513Z,97560.13
2022-11-24T08:28:47.947Z,97560.38
2022-11-24T08:31:18.774Z,97560.22
2022-11-24T08:33:46.056Z,97561.54
2022-11-24T08:36:15.552Z,97562.20
2022-11-24T08:38:42.355Z,97567.00
2022-11-24T08:41:12.228Z,97569.17
2022-11-24T08:43:39.454Z,97571.12
2022-11-24T08:46:11.558Z,97572.55
2022-11-24T08:48:38.102Z,97573.27
2022-11-24T08:51:14.415Z,97578.98
2022-11-24T08:53:41.409Z,97581.26
2022-11-24T08:56:09.522Z,97583.44
2022-11-24T08:58:37.195Z,97584.02
2022-11-24T09:01:09.805Z,97581.50
2022-11-24T09:03:36.891Z,97585.19
2022-11-24T09:06:03.578Z,97586.39
2022-11-24T09:08:31.051Z,97582.95
2022-11-24T09:11:01.652Z,97583.68
2022-11-24T09:13:28.551Z,97587.99
2022-11-24T09:15:54.949Z,97588.73
2022-11-24T09:18:22.769Z,97592.63
2022-11-24T09:20:51.922Z,97590.05
2022-11-24T09:23:18.428Z,97589.36
2022-11-24T09:25:44.902Z,97591.23
2022-11-24T09:28:11.480Z,97598.73
2022-11-24T09:30:38.004Z,97595.94
2022-11-24T09:33:04.682Z,97594.91
2022-11-24T09:35:31.216Z,97598.54
2022-11-24T09:37:57.640Z,97601.82
2022-11-24T09:40:24.301Z,97603.48
2022-11-24T09:43:05.459Z,97600.91
2022-11-24T09:46:06.879Z,97602.40
2022-11-24T09:48:41.445Z,97603.53
2022-11-24T09:51:12.927Z,97606.84
2022-11-24T09:53:42.506Z,97608.12
2022-11-24T09:56:30.174Z,97604.37
2022-11-24T09:59:09.594Z,97607.95
2022-11-24T10:01:40.689Z,97606.98
2022-11-24T10:04:35.164Z,97606.30
2022-11-24T10:07:32.867Z,97607.24
2022-11-24T10:10:24.811Z,97604.48
2022-11-24T10:13:43.407Z,97603.32
2022-11-24T10:16:37.127Z,97600.57
2022-11-24T10:19:37.050Z,97601.33
2022-11-24T10:22:30.240Z,97600.65
2022-11-24T10:25:34.828Z,97600.20
2022-11-24T10:28:11.412Z,97601.20
2022-11-24T10:30:38.172Z,97602.06
2022-11-24T10:33:17.086Z,97598.77
2022-11-24T10:35:52.424Z,97598.73
2022-11-24T10:38:21.947Z,97602.36
2022-11-24T10:41:03.024Z,97597.55
2022-11-24T10:43:29.676Z,97598.40
2022-11-24T10:46:10.400Z,97595.89
2022-11-24T10:48:49.666Z,97596.58
2022-11-24T10:51:43.853Z,97593.64
2022-11-24T10:54:22.293Z,97590.27
2022-11-24T10:56:52.375Z,97596.65
2022-11-24T10:59:38.990Z,97595.57
2022-11-24T11:02:29.080Z,97597.11
2022-11-24T11:04:55.899Z,97591.31
2022-11-24T11:07:25.162Z,97586.48
2022-11-24T11:10:17.797Z,97592.36
2022-11-24T11:12:45.117Z,97593.24
2022-11-24T11:15:31.443Z,97588.86
2022-11-24T11:18:00.365Z,97593.04
2022-11-24T11:20:34.283Z,97590.46
2022-11-24T11:23:20.475Z,97589.80
2022-11-24T11:25:47.011Z,97591.59
2022-11-24T11:28:27.420Z,97590.96
2022-11-24T11:31:19.179Z,97592.46
2022-11-24T11:34:07.275Z,97594.84
2022-11-24T11:36:42.495Z,97594.86
2022-11-24T11:39:21.942Z,97596.62
2022-11-24T11:41:51.774Z,97598.59
2022-11-24T11:44:38.619Z,97602.31
2022-11-24T11:47:15.930Z,97606.00
2022-11-24T11:49:42.501Z,97605.02
2022-11-24T11:52:28.728Z,97605.44
2022-11-24T11:55:05.151Z,97606.71
2022-11-24T11:57:46.776Z,97608.08
2022-11-24T12:00:18.636Z,97610.00
2022-11-24T12:03:03.938Z,97605.91
2022-11-24T12:05:58.286Z,97607.70
2022-11-24T12:09:18.147Z,97605.85
2022-11-24T12:11:42.482Z,97609.14
2022-11-24T12:14:27.393Z,97611.52
2022-11-24T12:17:24.083Z,97608.38
2022-11-24T12:20:13.489Z,97604.48
2022-11-24T12:22:55.085Z,97604.95
2022-11-24T12:25:30.353Z,97606.27
2022-11-24T12:28:05.556Z,97611.54
2022-11-24T12:30:43.169Z,97612.52
2022-11-24T12:33:51.702Z,97609.91
2022-11-24T12:36:32.470Z,97610.14
2022-11-24T12:39:05.555Z,97610.13
2022-11-24T12:41:42.526Z,97611.64
2022-11-24T12:44:32.336Z,97607.46
2022-11-24T12:47:18.730Z,97609.18
2022-11-24T12:49:51.006Z,97611.19
2022-11-24T12:52:33.182Z,97612.20
2022-11-24T12:55:01.398Z,97613.18
2022-11-24T12:57:35.157Z,97609.36
2022-11-24T13:00:33.655Z,97611.95
2022-11-24T13:03:19.061Z,97609.05
2022-11-24T13:06:44.392Z,97609.77
2022-11-24T13:09:14.833Z,97609.09
2022-11-24T13:11:46.319Z,97609.98
2022-11-24T13:14:15.593Z,97610.20
2022-11-24T13:17:21.764Z,97608.02
2022-11-24T13:19:40.275Z,97612.91
2022-11-24T13:22:06.610Z,97613.19
2022-11-24T13:24:38.411Z,97615.81
2022-11-24T13:27:14.389Z,97620.42
2022-11-24T13:29:43.182Z,97622.58
2022-11-24T13:32:09.613Z,97620.36
2022-11-24T13:34:39.139Z,97620.38
2022-11-24T13:37:29.002Z,97625.27
2022-11-24T13:40:11.530Z,97630.41
2022-11-24T13:42:56.161Z,97638.70
2022-11-24T13:45:41.383Z,97634.31
2022-11-24T13:48:20.496Z,97639.29
2022-11-24T13:50:50.651Z,97639.37
2022-11-24T13:53:36.302Z,97642.86
2022-11-24T13:56:02.880Z,97640.60
2022-11-24T13:58:45.592Z,97648.23
2022-11-24T14:01:27.105Z,97651.06
2022-11-24T14:04:33.244Z,97652.63
2022-11-24T14:07:11.209Z,97656.89
2022-11-24T14:09:47.625Z,97660.75
2022-11-24T14:12:24.113Z,97664.77
2022-11-24T14:14:54.630Z,97669.45
2022-11-24T14:17:24.037Z,97670.38
2022-11-24T14:19:52.909Z,97672.73
2022-11-24T14:22:21.028Z,97676.05
2022-11-24T14:25:27.892Z,97682.88
2022-11-24T14:27:54.367Z,97684.08
2022-11-24T14:30:23.217Z,97683.48
2022-11-24T14:33:01.683Z,97684.45
2022-11-24T14:35:32.548Z,97689.16
2022-11-24T14:38:01.850Z,97690.25
2022-11-24T14:40:49.593Z,97697.45
2022-11-24T14:43:20.650Z,97697.13
2022-11-24T14:45:54.890Z,97700.20
2022-11-24T14:48:51.844Z,97704.49
2022-11-24T14:51:23.395Z,97709.65
2022-11-24T14:53:53.724Z,97709.15
2022-11-24T14:56:29.271Z,97711.02
2022-11-24T14:58:57.388Z,97713.38
2022-11-24T15:01:26.935Z,97710.34
2022-11-24T15:04:32.843Z,97711.20
2022-11-24T15:07:13.142Z,97709.75
2022-11-24T15:09:55.298Z,97715.09
2022-11-24T15:12:42.119Z,97710.63
2022-11-24T15:15:14.627Z,97715.91
2022-11-24T15:17:49.537Z,97722.76
2022-11-24T15:20:32.363Z,97720.16
2022-11-24T15:23:23.716Z,97722.85
2022-11-24T15:25:54.641Z,97726.23
2022-11-24T15:28:21.773Z,97737.05
2022-11-24T15:30:48.320Z,97741.94
2022-11-24T15:33:17.159Z,97748.11
2022-11-24T15:35:44.678Z,97749.89
2022-11-24T15:38:11.825Z,97761.65
2022-11-24T15:40:38.915Z,97764.96
2022-11-24T15:43:36.467Z,97766.81
2022-11-24T15:46:04.627Z,97764.19
2022-11-24T15:48:32.002Z,97763.82
2022-11-24T15:51:01.262Z,97771.09
2022-11-24T15:53:34.407Z,97770.83
2022-11-24T15:56:02.595Z,97784.77
2022-11-24T15:58:29.198Z,97780.73
2022-11-24T16:00:55.698Z,97784.49
2022-11-24T16:03:46.451Z,97786.92
2022-11-24T16:06:15.025Z,97787.33
2022-11-24T16:08:43.197Z,97787.36
2022-11-24T16:11:09.570Z,97791.77
2022-11-24T16:13:36.253Z,97789.23
2022-11-24T16:16:02.821Z,97792.47
2022-11-24T16:18:29.750Z,97791.44
2022-11-24T16:20:56.227Z,97791.78
2022-11-24T16:23:22.784Z,97800.47
2022-11-24T16:25:49.413Z,97803.02
2022-11-24T16:28:15.950Z,97805.58
2022-11-24T16:30:42.388Z,97808.14
2022-11-24T16:33:08.949Z,97803.16
2022-11-24T16:35:35.922Z,97807.06
2022-11-24T16:38:02.432Z,97808.77
2022-11-24T16:40:28.866Z,97811.35
2022-11-24T16:42:55.402Z,97810.52
2022-11-24T16:45:21.901Z,97811.89
2022-11-24T16:47:48.319Z,97812.07
2022-11-24T16:50:15.023Z,97808.98
2022-11-24T16:52:41.421Z,97813.42
2022-11-24T16:55:08.919Z,97809.27
2022-11-24T16:57:36.581Z,97814.75
2022-11-24T17:00:04.944Z,97816.33
2022-11-24T17:02:31.410Z,97823.16
2022-11-24T17:04:57.870Z,97823.98
2022-11-24T17:07:24.404Z,97825.70
2022-11-24T17:09:50.917Z,97830.16
2022-11-24T17:12:17.347Z,97833.60
2022-11-24T17:14:52.646Z,97838.00
2022-11-24T17:17:29.732Z,97840.77
2022-11-24T17:19:56.173Z,97842.72
2022-11-24T17:22:22.613Z,97847.41
2022-11-24T17:24:49.042Z,97848.67
2022-11-24T17:27:15.527Z,97851.80
2022-11-24T17:29:41.941Z,97850.30
2022-11-24T17:32:08.472Z,97857.34
2022-11-24T17:34:35.327Z,97853.61
2022-11-24T17:37:02.094Z,97859.94
2022-11-24T17:39:28.525Z,97865.09
2022-11-24T17:41:55.075Z,97865.46
2022-11-24T17:44:21.612Z,97865.36
2022-11-24T17:46:48.025Z,97869.16
2022-11-24T17:49:14.393Z,97875.52
2022-11-24T17:51:40.778Z,97876.61
2022-11-24T17:54:24.649Z,97884.16
2022-11-24T17:56:53.769Z,97889.64
2022-11-24T17:59:20.180Z,97892.29
2022-11-24T18:01:46.642Z,97895.38
2022-11-24T18:04:13.179Z,97897.14
2022-11-24T18:06:39.615Z,97894.77
2022-11-24T18:09:06.071Z,97904.20
2022-11-24T18:11:32.551Z,97906.65
2022-11-24T18:14:03.103Z,97908.55
2022-11-24T18:16:34.557Z,97917.14
2022-11-24T18:19:11.500Z,97917.01
2022-11-24T18:21:42.285Z,97921.12
2022-11-24T18:24:10.584Z,97922.53
2022-11-24T18:26:39.070Z,97924.12
2022-11-24T18:29:05.800Z,97928.39
2022-11-24T18:31:32.500Z,97927.55
2022-11-24T18:33:59.673Z,97927.06
2022-11-24T18:36:30.325Z,97931.00
2022-11-24T18:39:00.577Z,97931.02
2022-11-24T18:41:27.461Z,97930.69
2022-11-24T18:43:54.048Z,97934.45
2022-11-24T18:46:20.693Z,97932.09
2022-11-24T18:48:47.424Z,97933.45
2022-11-24T18:51:14.529Z,97933.66
2022-11-24T18:53:45.774Z,97931.14
2022-11-24T18:56:14.691Z,97931.67
2022-11-24T18:58:41.477Z,97931.02
2022-11-24T19:01:13.769Z,97937.86
2022-11-24T19:03:51.757Z,97937.20
2022-11-24T19:06:19.735Z,97942.66
2022-11-24T19:08:47.330Z,97945.06
2022-11-24T19:11:31.358Z,97942.35
2022-11-24T19:13:58.195Z,97950.54
2022-11-24T19:16:25.385Z,97958.05
2022-11-24T19:18:54.965Z,97959.91
2022-11-24T19:21:22.016Z,97959.54
2022-11-24T19:23:49.273Z,97959.19
2022-11-24T19:26:15.922Z,97964.98
2022-11-24T19:28:42.618Z,97965.30
2022-11-24T19:31:11.978Z,97967.21
2022-11-24T19:33:39.635Z,97970.30
2022-11-24T19:36:18.362Z,97973.00
2022-11-24T19:38:53.348Z,97978.96
2022-11-24T19:41:22.003Z,97981.32
2022-11-24T19:43:48.628Z,97981.15
2022-11-24T19:46:18.451Z,97982.53
2022-11-24T19:48:47.857Z,97987.11
2022-11-24T19:51:19.999Z,97993.08
2022-11-24T19:53:46.872Z,97994.15
2022-11-24T19:56:16.597Z,97995.83
2022-11-24T19:58:43.027Z,97995.29
2022-11-24T20:01:12.469Z,97997.66
2022-11-24T20:03:40.338Z,98000.02
2022-11-24T20:06:08.520Z,98001.54
2022-11-24T20:08:36.848Z,98005.96
2022-11-24T20:11:05.446Z,98007.45
2022-11-24T20:13:33.568Z,98017.16
2022-11-24T20:16:21.689Z,98019.20
2022-11-24T20:18:48.208Z,98017.64
2022-11-24T20:21:17.860Z,98022.95
2022-11-24T20:23:46.192Z,98021.91
2022-11-24T20:26:17.703Z,98027.38
2022-11-24T20:28:44.021Z,98033.55
2022-11-24T20:31:14.692Z,98035.61
2022-11-24T20:33:42.095Z,98037.48
2022-11-24T20:36:14.549Z,98039.38
2022-11-24T20:38:42.403Z,98043.80
2022-11-24T20:41:15.552Z,98044.65
2022-11-24T20:43:43.305Z,98042.77
2022-11-24T20:46:31.151Z,98046.02
2022-11-24T20:48:59.015Z,98047.89
2022-11-24T20:51:28.989Z,98051.49
2022-11-24T20:53:59.546Z,98052.88
2022-11-24T20:56:28.792Z,98055.95
2022-11-24T20:58:56.129Z,98059.02
2022-11-24T21:01:25.558Z,98059.02
2022-11-24T21:03:55.137Z,98061.75
2022-11-24T21:06:23.271Z,98064.30
2022-11-24T21:08:50.738Z,98068.03
2022-11-24T21:11:18.589Z,98067.33
2022-11-24T21:13:46.228Z,98072.60
2022-11-24T21:16:22.252Z,98075.98
2022-11-24T21:18:51.625Z,98073.56
2022-11-24T21:21:22.541Z,98075.94
2022-11-24T21:23:49.702Z,98077.09
2022-11-24T21:26:18.289Z,98082.52
2022-11-24T21:28:47.125Z,98080.95
2022-11-24T21:31:18.847Z,98081.11
2022-11-24T21:33:47.364Z,98083.43
2022-11-24T21:36:16.278Z,98084.40
2022-11-24T21:38:43.271Z,98090.14
2022-11-24T21:41:11.905Z,98089.89
2022-11-24T21:43:38.383Z,98095.49
2022-11-24T21:46:07.912Z,98097.70
2022-11-24T21:48:36.294Z,98099.05
2022-11-24T21:51:05.918Z,98096.64
2022-11-24T21:53:34.878Z,98098.63
2022-11-24T21:56:03.992Z,98100.12
2022-11-24T21:58:30.412Z,98102.31
2022-11-24T22:01:07.760Z,98105.18
2022-11-24T22:03:34.578Z,98104.80
2022-11-24T22:06:01.709Z,98111.95
2022-11-24T22:08:29.585Z,98113.30
2022-11-24T22:11:04.019Z,98111.92
2022-11-24T22:13:31.003Z,98117.86
2022-11-24T22:16:02.471Z,98116.46
2022-11-24T22:18:32.853Z,98119.17
2022-11-24T22:20:59.802Z,98125.81
2022-11-24T22:23:26.198Z,98129.55
2022-11-24T22:25:52.646Z,98130.03
2022-11-24T22:28:19.109Z,98135.64
2022-11-24T22:30:45.489Z,98135.14
2022-11-24T22:33:11.990Z,98131.52
2022-11-24T22:35:38.370Z,98136.61
2022-11-24T22:38:04.867Z,98142.23
2022-11-24T22:40:31.343Z,98144.11
2022-11-24T22:42:58.147Z,98144.09
2022-11-24T22:45:24.637Z,98147.64
2022-11-24T22:47:54.623Z,98152.58
2022-11-24T22:50:21.190Z,98150.02
2022-11-24T22:52:50.065Z,98152.93
2022-11-24T22:55:16.582Z,98153.95
2022-11-24T22:57:47.920Z,98157.02
2022-11-24T23:00:18.362Z,98158.36
2022-11-24T23:02:44.805Z,98163.66
2022-11-24T23:05:11.367Z,98167.05
2022-11-24T23:07:37.874Z,98168.07
2022-11-24T23:10:04.515Z,98169.28
2022-11-24T23:12:30.983Z,98172.20
2022-11-24T23:14:57.419Z,98171.34
2022-11-24T23:17:23.843Z,98173.73
2022-11-24T23:19:50.302Z,98172.69
2022-11-24T23:22:16.844Z,98172.86
2022-11-24T23:24:43.237Z,98176.45
2022-11-24T23:27:09.636Z,98183.48
2022-11-24T23:29:36.067Z,98186.73
2022-11-24T23:32:02.645Z,98186.89
2022-11-24T23:34:29.148Z,98187.94
2022-11-24T23:36:55.789Z,98191.52
2022-11-24T23:39:22.290Z,98187.10
2022-11-24T23:41:49.079Z,98188.13
2022-11-24T23:44:15.610Z,98185.89
2022-11-24T23:46:42.120Z,98192.73
2022-11-24T23:49:08.696Z,98194.23
2022-11-24T23:51:35.109Z,98197.11
2022-11-24T23:54:01.986Z,98199.81
2022-11-24T23:56:30.849Z,98202.00
2022-11-24T23:58:57.309Z,98205.40
